sensor_id;sensor_type;location;lat;lon;timestamp;temperature;humidity
666;DHT22;315;48.738;9.126;2023-10-31T00:02:00;11.00;99.90
666;DHT22;315;48.738;9.126;2023-10-31T00:04:26;11.00;99.90
666;DHT22;315;48.738;9.126;2023-10-31T00:06:51;11.00;99.90
666;DHT22;315;48.738;9.126;2023-10-31T00:09:17;11.00;99.90
666;DHT22;315;48.738;9.126;2023-10-31T00:11:43;11.00;99.90
666;DHT22;315;48.738;9.126;2023-10-31T00:14:09;11.00;99.90
666;DHT22;315;48.738;9.126;2023-10-31T00:16:35;11.00;99.90
666;DHT22;315;48.738;9.126;2023-10-31T00:19:00;10.90;99.90
666;DHT22;315;48.738;9.126;2023-10-31T00:21:26;10.90;99.90
666;DHT22;315;48.738;9.126;2023-10-31T00:23:51;10.90;99.90
666;DHT22;315;48.738;9.126;2023-10-31T00:26:17;10.90;99.90
666;DHT22;315;48.738;9.126;2023-10-31T00:28:42;10.90;99.90
666;DHT22;315;48.738;9.126;2023-10-31T00:31:08;10.90;99.90
666;DHT22;315;48.738;9.126;2023-10-31T00:33:37;10.90;99.90
666;DHT22;315;48.738;9.126;2023-10-31T00:36:03;10.90;99.90
666;DHT22;315;48.738;9.126;2023-10-31T00:38:28;10.90;99.90
666;DHT22;315;48.738;9.126;2023-10-31T00:40:54;10.90;99.90
666;DHT22;315;48.738;9.126;2023-10-31T00:43:19;10.90;99.90
666;DHT22;315;48.738;9.126;2023-10-31T00:45:45;10.90;99.90
666;DHT22;315;48.738;9.126;2023-10-31T00:48:10;10.90;99.90
666;DHT22;315;48.738;9.126;2023-10-31T00:50:36;10.90;99.90
666;DHT22;315;48.738;9.126;2023-10-31T00:53:02;10.90;99.90
666;DHT22;315;48.738;9.126;2023-10-31T00:55:27;10.90;99.90
666;DHT22;315;48.738;9.126;2023-10-31T00:57:53;10.90;99.90
666;DHT22;315;48.738;9.126;2023-10-31T01:00:18;10.90;99.90
666;DHT22;315;48.738;9.126;2023-10-31T01:02:44;10.90;99.90
666;DHT22;315;48.738;9.126;2023-10-31T01:05:10;10.80;99.90
666;DHT22;315;48.738;9.126;2023-10-31T01:07:36;10.70;99.90
666;DHT22;315;48.738;9.126;2023-10-31T01:10:02;10.60;99.90
666;DHT22;315;48.738;9.126;2023-10-31T01:12:28;10.60;99.90
666;DHT22;315;48.738;9.126;2023-10-31T01:14:54;10.50;99.90
666;DHT22;315;48.738;9.126;2023-10-31T01:17:21;10.40;99.90
666;DHT22;315;48.738;9.126;2023-10-31T01:19:46;10.40;99.90
666;DHT22;315;48.738;9.126;2023-10-31T01:22:12;10.30;99.90
666;DHT22;315;48.738;9.126;2023-10-31T01:24:37;10.30;99.90
666;DHT22;315;48.738;9.126;2023-10-31T01:27:03;10.20;99.90
666;DHT22;315;48.738;9.126;2023-10-31T01:29:28;10.10;99.90
666;DHT22;315;48.738;9.126;2023-10-31T01:31:54;10.10;99.90
666;DHT22;315;48.738;9.126;2023-10-31T01:34:20;10.00;99.90
666;DHT22;315;48.738;9.126;2023-10-31T01:36:45;10.00;99.90
666;DHT22;315;48.738;9.126;2023-10-31T01:39:11;10.00;99.90
666;DHT22;315;48.738;9.126;2023-10-31T01:41:36;10.00;99.90
666;DHT22;315;48.738;9.126;2023-10-31T01:44:02;10.00;99.90
666;DHT22;315;48.738;9.126;2023-10-31T01:46:27;10.00;99.90
666;DHT22;315;48.738;9.126;2023-10-31T01:48:53;10.00;99.90
666;DHT22;315;48.738;9.126;2023-10-31T01:51:18;10.00;99.90
666;DHT22;315;48.738;9.126;2023-10-31T01:53:44;10.00;99.90
666;DHT22;315;48.738;9.126;2023-10-31T01:56:10;10.00;99.90
666;DHT22;315;48.738;9.126;2023-10-31T01:58:36;10.10;99.90
666;DHT22;315;48.738;9.126;2023-10-31T02:01:04;10.10;99.90
666;DHT22;315;48.738;9.126;2023-10-31T02:03:30;10.10;99.90
666;DHT22;315;48.738;9.126;2023-10-31T02:05:57;10.10;99.90
666;DHT22;315;48.738;9.126;2023-10-31T02:08:24;10.10;99.90
666;DHT22;315;48.738;9.126;2023-10-31T02:10:49;10.10;99.90
666;DHT22;315;48.738;9.126;2023-10-31T02:13:16;10.00;99.90
666;DHT22;315;48.738;9.126;2023-10-31T02:15:42;10.00;99.90
666;DHT22;315;48.738;9.126;2023-10-31T02:18:08;10.10;99.90
666;DHT22;315;48.738;9.126;2023-10-31T02:20:34;10.10;99.90
666;DHT22;315;48.738;9.126;2023-10-31T02:23:00;10.00;99.90
666;DHT22;315;48.738;9.126;2023-10-31T02:25:26;10.00;99.90
666;DHT22;315;48.738;9.126;2023-10-31T02:27:51;10.00;99.90
666;DHT22;315;48.738;9.126;2023-10-31T02:30:17;10.00;99.90
666;DHT22;315;48.738;9.126;2023-10-31T02:32:42;10.00;99.90
666;DHT22;315;48.738;9.126;2023-10-31T02:35:09;10.00;99.90
666;DHT22;315;48.738;9.126;2023-10-31T02:37:35;10.00;99.90
666;DHT22;315;48.738;9.126;2023-10-31T02:40:00;10.00;99.90
666;DHT22;315;48.738;9.126;2023-10-31T02:42:27;10.00;99.90
666;DHT22;315;48.738;9.126;2023-10-31T02:44:52;10.00;99.90
666;DHT22;315;48.738;9.126;2023-10-31T02:47:18;10.00;99.90
666;DHT22;315;48.738;9.126;2023-10-31T02:49:44;10.00;99.90
666;DHT22;315;48.738;9.126;2023-10-31T02:52:09;10.10;99.90
666;DHT22;315;48.738;9.126;2023-10-31T02:54:35;10.10;99.90
666;DHT22;315;48.738;9.126;2023-10-31T02:57:01;10.10;99.90
666;DHT22;315;48.738;9.126;2023-10-31T02:59:27;10.10;99.90
666;DHT22;315;48.738;9.126;2023-10-31T03:01:53;10.10;99.90
666;DHT22;315;48.738;9.126;2023-10-31T03:04:19;10.20;99.90
666;DHT22;315;48.738;9.126;2023-10-31T03:06:44;10.20;99.90
666;DHT22;315;48.738;9.126;2023-10-31T03:09:10;10.20;99.90
666;DHT22;315;48.738;9.126;2023-10-31T03:11:35;10.10;99.90
666;DHT22;315;48.738;9.126;2023-10-31T03:14:01;10.10;99.90
666;DHT22;315;48.738;9.126;2023-10-31T03:16:26;10.10;99.90
666;DHT22;315;48.738;9.126;2023-10-31T03:18:52;10.10;99.90
666;DHT22;315;48.738;9.126;2023-10-31T03:21:17;10.10;99.90
666;DHT22;315;48.738;9.126;2023-10-31T03:23:47;10.00;99.90
666;DHT22;315;48.738;9.126;2023-10-31T03:26:14;10.00;99.90
666;DHT22;315;48.738;9.126;2023-10-31T03:28:39;10.00;99.90
666;DHT22;315;48.738;9.126;2023-10-31T03:31:05;10.10;99.90
666;DHT22;315;48.738;9.126;2023-10-31T03:33:30;10.10;99.90
666;DHT22;315;48.738;9.126;2023-10-31T03:35:56;10.00;99.90
666;DHT22;315;48.738;9.126;2023-10-31T03:38:21;10.00;99.90
666;DHT22;315;48.738;9.126;2023-10-31T03:40:47;10.00;99.90
666;DHT22;315;48.738;9.126;2023-10-31T03:43:12;10.00;99.90
666;DHT22;315;48.738;9.126;2023-10-31T03:45:38;10.00;99.90
666;DHT22;315;48.738;9.126;2023-10-31T03:48:04;10.00;99.90
666;DHT22;315;48.738;9.126;2023-10-31T03:50:29;10.00;99.90
666;DHT22;315;48.738;9.126;2023-10-31T03:52:55;10.00;99.90
666;DHT22;315;48.738;9.126;2023-10-31T03:55:20;10.00;99.90
666;DHT22;315;48.738;9.126;2023-10-31T03:57:46;10.00;99.90
666;DHT22;315;48.738;9.126;2023-10-31T04:00:12;9.90;99.90
666;DHT22;315;48.738;9.126;2023-10-31T04:02:39;10.00;99.90
666;DHT22;315;48.738;9.126;2023-10-31T04:05:05;10.00;99.90
666;DHT22;315;48.738;9.126;2023-10-31T04:07:32;9.90;99.90
666;DHT22;315;48.738;9.126;2023-10-31T04:09:57;9.90;99.90
666;DHT22;315;48.738;9.126;2023-10-31T04:12:23;9.80;99.90
666;DHT22;315;48.738;9.126;2023-10-31T04:14:48;9.80;99.90
666;DHT22;315;48.738;9.126;2023-10-31T04:17:14;9.90;99.90
666;DHT22;315;48.738;9.126;2023-10-31T04:19:39;9.90;99.90
666;DHT22;315;48.738;9.126;2023-10-31T04:22:05;9.90;99.90
666;DHT22;315;48.738;9.126;2023-10-31T04:24:31;9.90;99.90
666;DHT22;315;48.738;9.126;2023-10-31T04:26:56;9.90;99.90
666;DHT22;315;48.738;9.126;2023-10-31T04:29:22;10.00;99.90
666;DHT22;315;48.738;9.126;2023-10-31T04:31:48;10.00;99.90
666;DHT22;315;48.738;9.126;2023-10-31T04:34:13;9.90;99.90
666;DHT22;315;48.738;9.126;2023-10-31T04:36:39;9.90;99.90
666;DHT22;315;48.738;9.126;2023-10-31T04:39:05;9.80;99.90
666;DHT22;315;48.738;9.126;2023-10-31T04:41:31;9.80;99.90
666;DHT22;315;48.738;9.126;2023-10-31T04:43:56;9.70;99.90
666;DHT22;315;48.738;9.126;2023-10-31T04:46:22;9.70;99.90
666;DHT22;315;48.738;9.126;2023-10-31T04:48:48;9.70;99.90
666;DHT22;315;48.738;9.126;2023-10-31T04:51:13;9.70;99.90
666;DHT22;315;48.738;9.126;2023-10-31T04:53:39;9.70;99.90
666;DHT22;315;48.738;9.126;2023-10-31T04:56:11;9.60;99.90
666;DHT22;315;48.738;9.126;2023-10-31T04:58:36;9.60;99.90
666;DHT22;315;48.738;9.126;2023-10-31T05:01:02;9.60;99.90
666;DHT22;315;48.738;9.126;2023-10-31T05:03:28;9.60;99.90
666;DHT22;315;48.738;9.126;2023-10-31T05:05:53;9.60;99.90
666;DHT22;315;48.738;9.126;2023-10-31T05:08:19;9.60;99.90
666;DHT22;315;48.738;9.126;2023-10-31T05:10:44;9.60;99.90
666;DHT22;315;48.738;9.126;2023-10-31T05:13:12;9.60;99.90
666;DHT22;315;48.738;9.126;2023-10-31T05:15:38;9.60;99.90
666;DHT22;315;48.738;9.126;2023-10-31T05:18:03;9.50;99.90
666;DHT22;315;48.738;9.126;2023-10-31T05:20:29;9.50;99.90
666;DHT22;315;48.738;9.126;2023-10-31T05:22:54;9.50;99.90
666;DHT22;315;48.738;9.126;2023-10-31T05:25:20;9.50;99.90
666;DHT22;315;48.738;9.126;2023-10-31T05:27:45;9.40;99.90
666;DHT22;315;48.738;9.126;2023-10-31T05:30:13;9.40;99.90
666;DHT22;315;48.738;9.126;2023-10-31T05:32:39;9.40;99.90
666;DHT22;315;48.738;9.126;2023-10-31T05:35:05;9.40;99.90
666;DHT22;315;48.738;9.126;2023-10-31T05:37:30;9.40;99.90
666;DHT22;315;48.738;9.126;2023-10-31T05:39:56;9.40;99.90
666;DHT22;315;48.738;9.126;2023-10-31T05:42:21;9.30;99.90
666;DHT22;315;48.738;9.126;2023-10-31T05:44:48;9.30;99.90
666;DHT22;315;48.738;9.126;2023-10-31T05:47:14;9.30;99.90
666;DHT22;315;48.738;9.126;2023-10-31T05:49:42;9.20;99.90
666;DHT22;315;48.738;9.126;2023-10-31T05:52:07;9.30;99.90
666;DHT22;315;48.738;9.126;2023-10-31T05:54:33;9.20;99.90
666;DHT22;315;48.738;9.126;2023-10-31T05:56:58;9.20;99.90
666;DHT22;315;48.738;9.126;2023-10-31T05:59:24;9.20;99.90
666;DHT22;315;48.738;9.126;2023-10-31T06:01:50;9.20;99.90
666;DHT22;315;48.738;9.126;2023-10-31T06:04:16;9.20;99.90
666;DHT22;315;48.738;9.126;2023-10-31T06:06:41;9.20;99.90
666;DHT22;315;48.738;9.126;2023-10-31T06:09:07;9.20;99.90
666;DHT22;315;48.738;9.126;2023-10-31T06:11:32;9.20;99.90
666;DHT22;315;48.738;9.126;2023-10-31T06:13:59;9.20;99.90
666;DHT22;315;48.738;9.126;2023-10-31T06:16:25;9.20;99.90
666;DHT22;315;48.738;9.126;2023-10-31T06:18:50;9.20;99.90
666;DHT22;315;48.738;9.126;2023-10-31T06:21:16;9.20;99.90
666;DHT22;315;48.738;9.126;2023-10-31T06:23:41;9.20;99.90
666;DHT22;315;48.738;9.126;2023-10-31T06:26:09;9.30;99.90
666;DHT22;315;48.738;9.126;2023-10-31T06:28:35;9.20;99.90
666;DHT22;315;48.738;9.126;2023-10-31T06:31:02;9.20;99.90
666;DHT22;315;48.738;9.126;2023-10-31T06:33:28;9.20;99.90
666;DHT22;315;48.738;9.126;2023-10-31T06:35:53;9.20;99.90
666;DHT22;315;48.738;9.126;2023-10-31T06:38:19;9.20;99.90
666;DHT22;315;48.738;9.126;2023-10-31T06:40:45;9.20;99.90
666;DHT22;315;48.738;9.126;2023-10-31T06:43:10;9.20;99.90
666;DHT22;315;48.738;9.126;2023-10-31T06:45:36;9.20;99.90
666;DHT22;315;48.738;9.126;2023-10-31T06:48:02;9.20;99.90
666;DHT22;315;48.738;9.126;2023-10-31T06:50:28;9.20;99.90
666;DHT22;315;48.738;9.126;2023-10-31T06:52:54;9.20;99.90
666;DHT22;315;48.738;9.126;2023-10-31T06:55:19;9.30;99.90
666;DHT22;315;48.738;9.126;2023-10-31T06:57:45;9.30;99.90
666;DHT22;315;48.738;9.126;2023-10-31T07:00:11;9.40;99.90
666;DHT22;315;48.738;9.126;2023-10-31T07:02:37;9.50;99.90
666;DHT22;315;48.738;9.126;2023-10-31T07:05:03;9.60;99.90
666;DHT22;315;48.738;9.126;2023-10-31T07:07:29;9.60;99.90
666;DHT22;315;48.738;9.126;2023-10-31T07:09:55;9.60;99.90
666;DHT22;315;48.738;9.126;2023-10-31T07:12:20;9.70;99.90
666;DHT22;315;48.738;9.126;2023-10-31T07:14:46;9.70;99.90
666;DHT22;315;48.738;9.126;2023-10-31T07:17:12;9.80;99.90
666;DHT22;315;48.738;9.126;2023-10-31T07:19:37;9.70;99.90
666;DHT22;315;48.738;9.126;2023-10-31T07:22:03;9.70;99.90
666;DHT22;315;48.738;9.126;2023-10-31T07:24:29;9.70;99.90
666;DHT22;315;48.738;9.126;2023-10-31T07:26:54;9.70;99.90
666;DHT22;315;48.738;9.126;2023-10-31T07:29:20;9.70;99.90
666;DHT22;315;48.738;9.126;2023-10-31T07:31:46;9.80;99.90
666;DHT22;315;48.738;9.126;2023-10-31T07:34:11;9.80;99.90
666;DHT22;315;48.738;9.126;2023-10-31T07:36:37;9.80;99.90
666;DHT22;315;48.738;9.126;2023-10-31T07:39:04;9.90;99.90
666;DHT22;315;48.738;9.126;2023-10-31T07:41:30;10.00;99.90
666;DHT22;315;48.738;9.126;2023-10-31T07:43:55;10.00;99.90
666;DHT22;315;48.738;9.126;2023-10-31T07:46:21;10.10;99.90
666;DHT22;315;48.738;9.126;2023-10-31T07:48:46;10.20;99.90
666;DHT22;315;48.738;9.126;2023-10-31T07:51:12;10.20;99.90
666;DHT22;315;48.738;9.126;2023-10-31T07:53:38;10.20;99.90
666;DHT22;315;48.738;9.126;2023-10-31T07:56:03;10.30;99.90
666;DHT22;315;48.738;9.126;2023-10-31T07:58:29;10.30;99.90
666;DHT22;315;48.738;9.126;2023-10-31T08:00:54;10.40;99.90
666;DHT22;315;48.738;9.126;2023-10-31T08:03:20;10.50;99.90
666;DHT22;315;48.738;9.126;2023-10-31T08:05:45;10.60;99.90
666;DHT22;315;48.738;9.126;2023-10-31T08:08:11;10.70;99.90
666;DHT22;315;48.738;9.126;2023-10-31T08:10:36;10.80;99.90
666;DHT22;315;48.738;9.126;2023-10-31T08:13:02;10.90;99.90
666;DHT22;315;48.738;9.126;2023-10-31T08:15:27;11.10;99.90
666;DHT22;315;48.738;9.126;2023-10-31T08:17:53;11.30;99.90
666;DHT22;315;48.738;9.126;2023-10-31T08:20:18;11.60;99.90
666;DHT22;315;48.738;9.126;2023-10-31T08:22:45;11.80;99.90
666;DHT22;315;48.738;9.126;2023-10-31T08:25:10;11.90;99.90
666;DHT22;315;48.738;9.126;2023-10-31T08:27:36;12.10;99.90
666;DHT22;315;48.738;9.126;2023-10-31T08:30:02;12.30;99.90
666;DHT22;315;48.738;9.126;2023-10-31T08:32:29;12.40;99.90
666;DHT22;315;48.738;9.126;2023-10-31T08:34:54;12.50;99.90
666;DHT22;315;48.738;9.126;2023-10-31T08:37:21;12.60;99.90
666;DHT22;315;48.738;9.126;2023-10-31T08:39:47;12.80;99.90
666;DHT22;315;48.738;9.126;2023-10-31T08:42:12;12.70;99.90
666;DHT22;315;48.738;9.126;2023-10-31T08:44:40;12.60;99.90
666;DHT22;315;48.738;9.126;2023-10-31T08:47:05;12.70;99.90
666;DHT22;315;48.738;9.126;2023-10-31T08:49:31;12.70;99.90
666;DHT22;315;48.738;9.126;2023-10-31T08:51:57;12.70;99.90
666;DHT22;315;48.738;9.126;2023-10-31T08:54:22;12.80;99.90
666;DHT22;315;48.738;9.126;2023-10-31T08:56:48;13.10;99.90
666;DHT22;315;48.738;9.126;2023-10-31T08:59:13;13.30;99.90
666;DHT22;315;48.738;9.126;2023-10-31T09:01:40;13.60;99.90
666;DHT22;315;48.738;9.126;2023-10-31T09:04:06;14.00;99.90
666;DHT22;315;48.738;9.126;2023-10-31T09:06:37;14.40;99.90
666;DHT22;315;48.738;9.126;2023-10-31T09:09:06;14.80;99.90
666;DHT22;315;48.738;9.126;2023-10-31T09:11:32;15.10;99.90
666;DHT22;315;48.738;9.126;2023-10-31T09:13:57;14.90;99.90
666;DHT22;315;48.738;9.126;2023-10-31T09:16:24;14.70;99.90
666;DHT22;315;48.738;9.126;2023-10-31T09:18:51;14.40;99.90
666;DHT22;315;48.738;9.126;2023-10-31T09:21:18;14.80;99.90
666;DHT22;315;48.738;9.126;2023-10-31T09:23:43;15.40;99.90
666;DHT22;315;48.738;9.126;2023-10-31T09:26:09;16.20;99.90
666;DHT22;315;48.738;9.126;2023-10-31T09:28:36;16.30;99.90
666;DHT22;315;48.738;9.126;2023-10-31T09:31:05;15.90;99.90
666;DHT22;315;48.738;9.126;2023-10-31T09:33:30;15.50;99.90
666;DHT22;315;48.738;9.126;2023-10-31T09:35:57;15.10;99.90
666;DHT22;315;48.738;9.126;2023-10-31T09:38:23;15.00;99.90
666;DHT22;315;48.738;9.126;2023-10-31T09:40:50;15.00;99.90
666;DHT22;315;48.738;9.126;2023-10-31T09:43:17;15.20;99.90
666;DHT22;315;48.738;9.126;2023-10-31T09:45:44;15.40;99.90
666;DHT22;315;48.738;9.126;2023-10-31T09:48:12;15.50;99.90
666;DHT22;315;48.738;9.126;2023-10-31T09:50:48;15.60;99.90
666;DHT22;315;48.738;9.126;2023-10-31T09:53:15;16.30;99.90
666;DHT22;315;48.738;9.126;2023-10-31T09:55:45;16.30;99.90
666;DHT22;315;48.738;9.126;2023-10-31T09:58:11;15.60;99.90
666;DHT22;315;48.738;9.126;2023-10-31T10:00:37;15.00;99.90
666;DHT22;315;48.738;9.126;2023-10-31T10:03:07;14.20;99.90
666;DHT22;315;48.738;9.126;2023-10-31T10:05:36;13.80;99.90
666;DHT22;315;48.738;9.126;2023-10-31T10:08:04;13.40;99.90
666;DHT22;315;48.738;9.126;2023-10-31T10:10:30;13.00;99.90
666;DHT22;315;48.738;9.126;2023-10-31T10:12:57;12.80;99.90
666;DHT22;315;48.738;9.126;2023-10-31T10:15:24;12.70;99.90
666;DHT22;315;48.738;9.126;2023-10-31T10:17:53;12.60;99.90
666;DHT22;315;48.738;9.126;2023-10-31T10:20:19;12.60;99.90
666;DHT22;315;48.738;9.126;2023-10-31T10:22:45;12.70;99.90
666;DHT22;315;48.738;9.126;2023-10-31T10:25:14;12.80;99.90
666;DHT22;315;48.738;9.126;2023-10-31T10:27:45;13.00;99.90
666;DHT22;315;48.738;9.126;2023-10-31T10:30:13;13.00;99.90
666;DHT22;315;48.738;9.126;2023-10-31T10:32:38;12.90;99.90
666;DHT22;315;48.738;9.126;2023-10-31T10:35:06;13.00;99.90
666;DHT22;315;48.738;9.126;2023-10-31T10:37:32;13.10;99.90
666;DHT22;315;48.738;9.126;2023-10-31T10:39:59;13.00;99.90
666;DHT22;315;48.738;9.126;2023-10-31T10:42:33;13.10;99.90
666;DHT22;315;48.738;9.126;2023-10-31T10:45:03;13.20;99.90
666;DHT22;315;48.738;9.126;2023-10-31T10:47:33;13.20;99.90
666;DHT22;315;48.738;9.126;2023-10-31T10:50:00;13.20;99.90
666;DHT22;315;48.738;9.126;2023-10-31T10:52:45;13.00;99.90
666;DHT22;315;48.738;9.126;2023-10-31T10:55:21;12.80;99.90
666;DHT22;315;48.738;9.126;2023-10-31T10:58:09;12.60;99.90
666;DHT22;315;48.738;9.126;2023-10-31T11:00:39;12.40;99.90
666;DHT22;315;48.738;9.126;2023-10-31T11:03:05;12.40;99.90
666;DHT22;315;48.738;9.126;2023-10-31T11:05:32;12.40;99.90
666;DHT22;315;48.738;9.126;2023-10-31T11:07:58;12.60;99.90
666;DHT22;315;48.738;9.126;2023-10-31T11:10:24;12.70;99.90
666;DHT22;315;48.738;9.126;2023-10-31T11:12:50;12.80;99.90
666;DHT22;315;48.738;9.126;2023-10-31T11:15:17;12.90;99.90
666;DHT22;315;48.738;9.126;2023-10-31T11:17:45;12.90;99.90
666;DHT22;315;48.738;9.126;2023-10-31T11:20:12;12.90;99.90
666;DHT22;315;48.738;9.126;2023-10-31T11:22:42;13.00;99.90
666;DHT22;315;48.738;9.126;2023-10-31T11:25:19;13.30;99.90
666;DHT22;315;48.738;9.126;2023-10-31T11:27:45;13.50;99.90
666;DHT22;315;48.738;9.126;2023-10-31T11:30:34;13.60;99.90
666;DHT22;315;48.738;9.126;2023-10-31T11:33:00;13.80;99.90
666;DHT22;315;48.738;9.126;2023-10-31T11:35:29;14.30;99.90
666;DHT22;315;48.738;9.126;2023-10-31T11:38:05;15.00;99.90
666;DHT22;315;48.738;9.126;2023-10-31T11:40:32;15.60;99.90
666;DHT22;315;48.738;9.126;2023-10-31T11:42:58;15.70;99.90
666;DHT22;315;48.738;9.126;2023-10-31T11:45:35;15.50;99.90
666;DHT22;315;48.738;9.126;2023-10-31T11:48:02;15.20;99.90
666;DHT22;315;48.738;9.126;2023-10-31T11:50:30;15.20;99.90
666;DHT22;315;48.738;9.126;2023-10-31T11:55:25;14.70;99.90
666;DHT22;315;48.738;9.126;2023-10-31T11:57:51;14.50;99.90
666;DHT22;315;48.738;9.126;2023-10-31T12:00:23;14.30;99.90
666;DHT22;315;48.738;9.126;2023-10-31T12:05:24;13.90;99.90
666;DHT22;315;48.738;9.126;2023-10-31T12:07:50;13.70;99.90
666;DHT22;315;48.738;9.126;2023-10-31T12:10:25;13.60;99.90
666;DHT22;315;48.738;9.126;2023-10-31T12:12:52;13.60;99.90
666;DHT22;315;48.738;9.126;2023-10-31T12:15:18;13.60;99.90
666;DHT22;315;48.738;9.126;2023-10-31T12:17:44;13.60;99.90
666;DHT22;315;48.738;9.126;2023-10-31T12:20:10;13.60;99.90
666;DHT22;315;48.738;9.126;2023-10-31T12:22:36;13.50;99.90
666;DHT22;315;48.738;9.126;2023-10-31T12:25:02;13.70;99.90
666;DHT22;315;48.738;9.126;2023-10-31T12:27:45;14.10;99.90
666;DHT22;315;48.738;9.126;2023-10-31T12:30:12;14.30;99.90
666;DHT22;315;48.738;9.126;2023-10-31T12:32:39;14.50;99.90
666;DHT22;315;48.738;9.126;2023-10-31T12:35:05;14.60;99.90
666;DHT22;315;48.738;9.126;2023-10-31T12:37:32;14.50;99.90
666;DHT22;315;48.738;9.126;2023-10-31T12:39:58;14.50;99.90
666;DHT22;315;48.738;9.126;2023-10-31T12:42:27;14.50;99.90
666;DHT22;315;48.738;9.126;2023-10-31T12:44:55;14.00;99.90
666;DHT22;315;48.738;9.126;2023-10-31T12:47:22;13.60;99.90
666;DHT22;315;48.738;9.126;2023-10-31T12:49:48;13.10;99.90
666;DHT22;315;48.738;9.126;2023-10-31T12:52:13;13.00;99.90
666;DHT22;315;48.738;9.126;2023-10-31T12:54:39;13.00;99.90
666;DHT22;315;48.738;9.126;2023-10-31T12:57:08;12.90;99.90
666;DHT22;315;48.738;9.126;2023-10-31T12:59:34;12.80;99.90
666;DHT22;315;48.738;9.126;2023-10-31T13:02:02;12.70;99.90
666;DHT22;315;48.738;9.126;2023-10-31T13:04:30;12.60;99.90
666;DHT22;315;48.738;9.126;2023-10-31T13:09:29;12.40;99.90
666;DHT22;315;48.738;9.126;2023-10-31T13:12:00;12.40;99.90
666;DHT22;315;48.738;9.126;2023-10-31T13:14:27;12.50;99.90
666;DHT22;315;48.738;9.126;2023-10-31T13:16:52;12.70;99.90
666;DHT22;315;48.738;9.126;2023-10-31T13:19:18;12.90;99.90
666;DHT22;315;48.738;9.126;2023-10-31T13:21:43;12.90;99.90
666;DHT22;315;48.738;9.126;2023-10-31T13:24:09;12.90;99.90
666;DHT22;315;48.738;9.126;2023-10-31T13:26:35;13.00;99.90
666;DHT22;315;48.738;9.126;2023-10-31T13:29:00;13.00;99.90
666;DHT22;315;48.738;9.126;2023-10-31T13:31:26;13.20;99.90
666;DHT22;315;48.738;9.126;2023-10-31T13:33:52;13.50;99.90
666;DHT22;315;48.738;9.126;2023-10-31T13:36:17;13.80;99.90
666;DHT22;315;48.738;9.126;2023-10-31T13:38:44;14.10;99.90
666;DHT22;315;48.738;9.126;2023-10-31T13:41:09;14.20;99.90
666;DHT22;315;48.738;9.126;2023-10-31T13:43:35;14.30;99.90
666;DHT22;315;48.738;9.126;2023-10-31T13:46:02;14.30;99.90
666;DHT22;315;48.738;9.126;2023-10-31T13:48:28;14.40;99.90
666;DHT22;315;48.738;9.126;2023-10-31T13:50:53;14.30;99.90
666;DHT22;315;48.738;9.126;2023-10-31T13:53:19;14.20;99.90
666;DHT22;315;48.738;9.126;2023-10-31T13:55:44;14.40;99.90
666;DHT22;315;48.738;9.126;2023-10-31T13:58:10;14.50;99.90
666;DHT22;315;48.738;9.126;2023-10-31T14:00:36;14.70;99.90
666;DHT22;315;48.738;9.126;2023-10-31T14:03:01;14.70;99.90
666;DHT22;315;48.738;9.126;2023-10-31T14:05:27;14.60;99.90
666;DHT22;315;48.738;9.126;2023-10-31T14:07:52;14.60;99.90
666;DHT22;315;48.738;9.126;2023-10-31T14:10:19;14.30;99.90
666;DHT22;315;48.738;9.126;2023-10-31T14:12:47;14.30;99.90
666;DHT22;315;48.738;9.126;2023-10-31T14:15:13;14.20;99.90
666;DHT22;315;48.738;9.126;2023-10-31T14:17:38;14.30;99.90
666;DHT22;315;48.738;9.126;2023-10-31T14:20:04;14.40;99.90
666;DHT22;315;48.738;9.126;2023-10-31T14:22:30;14.40;99.90
666;DHT22;315;48.738;9.126;2023-10-31T14:24:56;14.40;99.90
666;DHT22;315;48.738;9.126;2023-10-31T14:27:21;14.40;99.90
666;DHT22;315;48.738;9.126;2023-10-31T14:29:47;14.50;99.90
666;DHT22;315;48.738;9.126;2023-10-31T14:32:12;14.30;99.90
666;DHT22;315;48.738;9.126;2023-10-31T14:34:38;14.00;99.90
666;DHT22;315;48.738;9.126;2023-10-31T14:37:03;13.90;99.90
666;DHT22;315;48.738;9.126;2023-10-31T14:39:31;13.80;99.90
666;DHT22;315;48.738;9.126;2023-10-31T14:41:57;13.70;99.90
666;DHT22;315;48.738;9.126;2023-10-31T14:44:23;13.60;99.90
666;DHT22;315;48.738;9.126;2023-10-31T14:46:48;13.50;99.90
666;DHT22;315;48.738;9.126;2023-10-31T14:49:14;13.40;99.90
666;DHT22;315;48.738;9.126;2023-10-31T14:51:40;13.30;99.90
666;DHT22;315;48.738;9.126;2023-10-31T14:54:07;13.40;99.90
666;DHT22;315;48.738;9.126;2023-10-31T14:56:33;13.50;99.90
666;DHT22;315;48.738;9.126;2023-10-31T14:59:00;13.50;99.90
666;DHT22;315;48.738;9.126;2023-10-31T15:01:27;13.30;99.90
666;DHT22;315;48.738;9.126;2023-10-31T15:03:53;13.30;99.90
666;DHT22;315;48.738;9.126;2023-10-31T15:06:20;13.20;99.90
666;DHT22;315;48.738;9.126;2023-10-31T15:08:47;13.20;99.90
666;DHT22;315;48.738;9.126;2023-10-31T15:11:12;13.10;99.90
666;DHT22;315;48.738;9.126;2023-10-31T15:13:38;13.00;99.90
666;DHT22;315;48.738;9.126;2023-10-31T15:16:04;12.90;99.90
666;DHT22;315;48.738;9.126;2023-10-31T15:18:29;12.90;99.90
666;DHT22;315;48.738;9.126;2023-10-31T15:20:55;12.80;99.90
666;DHT22;315;48.738;9.126;2023-10-31T15:23:23;12.80;99.90
666;DHT22;315;48.738;9.126;2023-10-31T15:25:48;12.70;99.90
666;DHT22;315;48.738;9.126;2023-10-31T15:28:14;12.60;99.90
666;DHT22;315;48.738;9.126;2023-10-31T15:30:40;12.60;99.90
666;DHT22;315;48.738;9.126;2023-10-31T15:33:05;12.50;99.90
666;DHT22;315;48.738;9.126;2023-10-31T15:35:31;12.50;99.90
666;DHT22;315;48.738;9.126;2023-10-31T15:37:56;12.50;99.90
666;DHT22;315;48.738;9.126;2023-10-31T15:40:22;12.50;99.90
666;DHT22;315;48.738;9.126;2023-10-31T15:42:47;12.40;99.90
666;DHT22;315;48.738;9.126;2023-10-31T15:45:13;12.10;99.90
666;DHT22;315;48.738;9.126;2023-10-31T15:47:38;12.00;99.90
666;DHT22;315;48.738;9.126;2023-10-31T15:50:04;11.90;99.90
666;DHT22;315;48.738;9.126;2023-10-31T15:52:30;11.80;99.90
666;DHT22;315;48.738;9.126;2023-10-31T15:54:55;11.80;99.90
666;DHT22;315;48.738;9.126;2023-10-31T15:57:21;11.70;99.90
666;DHT22;315;48.738;9.126;2023-10-31T15:59:48;11.60;99.90
666;DHT22;315;48.738;9.126;2023-10-31T16:02:13;11.50;99.90
666;DHT22;315;48.738;9.126;2023-10-31T16:04:41;11.50;99.90
666;DHT22;315;48.738;9.126;2023-10-31T16:07:07;11.40;99.90
666;DHT22;315;48.738;9.126;2023-10-31T16:09:35;11.40;99.90
666;DHT22;315;48.738;9.126;2023-10-31T16:12:01;11.50;99.90
666;DHT22;315;48.738;9.126;2023-10-31T16:14:28;11.50;99.90
666;DHT22;315;48.738;9.126;2023-10-31T16:16:54;11.50;99.90
666;DHT22;315;48.738;9.126;2023-10-31T16:19:20;11.50;99.90
666;DHT22;315;48.738;9.126;2023-10-31T16:21:46;11.50;99.90
666;DHT22;315;48.738;9.126;2023-10-31T16:24:11;11.50;99.90
666;DHT22;315;48.738;9.126;2023-10-31T16:26:37;11.50;99.90
666;DHT22;315;48.738;9.126;2023-10-31T16:29:04;12.10;99.90
666;DHT22;315;48.738;9.126;2023-10-31T16:31:31;12.10;99.90
666;DHT22;315;48.738;9.126;2023-10-31T16:33:57;12.00;99.90
666;DHT22;315;48.738;9.126;2023-10-31T16:36:23;11.80;99.90
666;DHT22;315;48.738;9.126;2023-10-31T16:38:50;11.90;99.90
666;DHT22;315;48.738;9.126;2023-10-31T16:41:15;11.90;99.90